createdAt,value
2019-03-29T00:02:13.737Z,10.47
2019-03-29T00:08:18.324Z,9.53
2019-03-29T00:14:23.663Z,10.60
2019-03-29T00:20:28.316Z,11.80
2019-03-29T00:26:32.899Z,13.00
2019-03-29T00:32:37.514Z,10.03
2019-03-29T00:38:42.103Z,10.20
2019-03-29T00:44:46.703Z,12.00
2019-03-29T00:50:51.254Z,9.77
2019-03-29T00:56:55.905Z,9.60
2019-03-29T01:03:00.472Z,9.43
2019-03-29T01:09:06.240Z,9.40
2019-03-29T01:15:11.285Z,8.80
2019-03-29T01:21:15.855Z,9.17
2019-03-29T01:27:20.410Z,8.97
2019-03-29T01:33:25.080Z,9.47
2019-03-29T01:39:29.940Z,9.50
2019-03-29T01:45:34.579Z,10.70
2019-03-29T01:51:39.137Z,9.77
2019-03-29T01:57:43.790Z,10.70
2019-03-29T02:03:48.378Z,9.27
2019-03-29T02:09:52.926Z,12.97
2019-03-29T02:15:57.490Z,12.53
2019-03-29T02:22:02.114Z,13.23
2019-03-29T02:28:06.777Z,14.37
2019-03-29T02:34:11.354Z,11.40
2019-03-29T02:40:16.151Z,13.70
2019-03-29T02:46:20.775Z,14.97
2019-03-29T02:52:25.340Z,14.43
2019-03-29T02:58:29.927Z,15.33
2019-03-29T03:04:34.460Z,12.90
2019-03-29T03:10:39.037Z,12.93
2019-03-29T03:16:43.666Z,14.07
2019-03-29T03:22:48.369Z,12.97
2019-03-29T03:28:52.951Z,12.83
2019-03-29T03:34:57.581Z,11.87
2019-03-29T03:41:02.313Z,13.23
2019-03-29T03:47:06.863Z,15.57
2019-03-29T03:53:12.011Z,19.70
2019-03-29T03:59:16.734Z,19.33
2019-03-29T04:05:21.299Z,20.20
2019-03-29T04:11:25.878Z,20.70
2019-03-29T04:17:30.520Z,19.77
2019-03-29T04:23:35.085Z,18.20
2019-03-29T04:29:39.643Z,18.93
2019-03-29T04:35:44.350Z,18.03
2019-03-29T04:41:50.077Z,18.73
2019-03-29T04:47:54.709Z,18.83
2019-03-29T04:53:59.295Z,19.37
2019-03-29T05:00:04.303Z,19.93
2019-03-29T05:06:08.877Z,18.20
2019-03-29T05:12:13.435Z,20.00
2019-03-29T05:18:18.406Z,18.10
2019-03-29T05:24:22.970Z,19.43
2019-03-29T05:30:27.528Z,16.70
2019-03-29T05:36:32.100Z,18.50
2019-03-29T05:42:36.657Z,16.53
2019-03-29T05:48:41.282Z,17.20
2019-03-29T05:54:45.841Z,18.30
2019-03-29T06:00:50.401Z,17.53
2019-03-29T06:06:54.981Z,21.47
2019-03-29T06:12:59.558Z,18.10
2019-03-29T06:19:04.261Z,17.60
2019-03-29T06:25:09.755Z,17.70
2019-03-29T06:31:14.502Z,18.00
2019-03-29T06:37:20.983Z,16.57
2019-03-29T06:43:25.552Z,16.90
2019-03-29T06:49:30.129Z,16.93
2019-03-29T06:55:34.766Z,16.20
2019-03-29T07:01:39.405Z,17.10
2019-03-29T07:07:44.660Z,16.47
2019-03-29T07:13:57.257Z,19.57
2019-03-29T07:19:55.924Z,25.83
2019-03-29T07:26:00.486Z,13.63
2019-03-29T07:32:05.066Z,15.77
2019-03-29T07:38:09.645Z,14.30
2019-03-29T07:44:14.210Z,14.87
2019-03-29T07:50:19.252Z,14.23
2019-03-29T07:56:24.032Z,13.50
2019-03-29T08:02:29.020Z,13.70
2019-03-29T08:08:34.469Z,15.20
2019-03-29T08:14:39.630Z,16.30
2019-03-29T08:20:44.802Z,15.50
2019-03-29T08:26:49.658Z,17.00
2019-03-29T08:32:54.228Z,17.10
2019-03-29T08:38:58.791Z,19.93
2019-03-29T08:45:03.759Z,19.20
2019-03-29T08:51:08.343Z,17.20
2019-03-29T08:57:12.995Z,15.80
2019-03-29T09:03:17.720Z,14.43
2019-03-29T09:09:22.425Z,11.67
2019-03-29T09:15:27.083Z,11.73
2019-03-29T09:21:31.647Z,10.73
2019-03-29T09:27:36.227Z,8.43
2019-03-29T09:33:41.084Z,9.20
2019-03-29T09:39:45.673Z,9.73
2019-03-29T09:45:50.316Z,7.87
2019-03-29T09:51:54.917Z,8.00
2019-03-29T09:57:59.719Z,7.90
2019-03-29T10:04:04.445Z,8.13
2019-03-29T10:10:09.938Z,7.73
2019-03-29T10:16:14.708Z,7.40
2019-03-29T10:22:20.118Z,8.73
2019-03-29T10:28:24.895Z,7.50
2019-03-29T10:34:29.980Z,8.00
2019-03-29T10:40:34.871Z,9.40
2019-03-29T10:46:39.505Z,8.47
2019-03-29T10:52:44.093Z,8.03
2019-03-29T10:58:48.668Z,7.43
2019-03-29T11:04:53.228Z,7.73
2019-03-29T11:10:57.791Z,8.20
2019-03-29T11:17:02.363Z,8.47
2019-03-29T11:23:07.095Z,8.57
2019-03-29T11:29:11.736Z,7.60
2019-03-29T11:35:16.373Z,7.83
2019-03-29T11:41:21.010Z,8.50
2019-03-29T11:47:25.577Z,8.50
2019-03-29T11:53:30.179Z,8.23
2019-03-29T11:59:34.722Z,8.50
2019-03-29T12:05:39.631Z,7.97
2019-03-29T12:11:44.187Z,8.20
2019-03-29T12:17:48.757Z,9.37
2019-03-29T12:23:53.394Z,8.17
2019-03-29T12:29:57.951Z,7.73
2019-03-29T12:36:02.626Z,7.87
2019-03-29T12:42:07.176Z,8.27
2019-03-29T12:48:11.745Z,8.10
2019-03-29T12:54:17.397Z,8.50
2019-03-29T13:00:22.223Z,7.00
2019-03-29T13:06:26.862Z,8.77
2019-03-29T13:12:31.512Z,8.10
2019-03-29T13:18:36.202Z,8.50
2019-03-29T13:24:40.885Z,8.37
2019-03-29T13:30:45.699Z,8.27
2019-03-29T13:36:50.345Z,8.20
2019-03-29T13:42:54.927Z,8.33
2019-03-29T13:48:59.536Z,8.50
2019-03-29T13:55:04.640Z,8.83
2019-03-29T14:01:09.265Z,8.30
2019-03-29T14:07:13.837Z,7.20
2019-03-29T14:13:19.791Z,7.80
2019-03-29T14:19:25.923Z,8.43
2019-03-29T14:25:30.719Z,8.10
2019-03-29T14:31:35.273Z,7.60
2019-03-29T14:37:39.837Z,6.13
2019-03-29T14:43:44.390Z,7.10
2019-03-29T14:49:48.973Z,7.77
2019-03-29T14:55:53.617Z,7.20
2019-03-29T15:01:58.907Z,6.83
2019-03-29T15:08:03.818Z,7.87
2019-03-29T15:14:08.459Z,6.60
2019-03-29T15:20:14.859Z,7.60
2019-03-29T15:26:19.760Z,6.40
2019-03-29T15:32:24.326Z,6.87
2019-03-29T15:38:28.885Z,7.30
2019-03-29T15:44:33.844Z,7.73
2019-03-29T15:50:38.403Z,7.10
2019-03-29T15:56:42.979Z,7.37
2019-03-29T16:02:47.652Z,6.47
2019-03-29T16:08:52.240Z,7.07
2019-03-29T16:14:56.820Z,7.07
2019-03-29T16:21:01.398Z,7.67
2019-03-29T16:27:06.066Z,6.90
2019-03-29T16:33:10.605Z,6.87
2019-03-29T16:39:15.240Z,6.53
2019-03-29T16:45:19.886Z,6.80
2019-03-29T16:51:24.540Z,6.70
2019-03-29T16:57:29.176Z,6.10
2019-03-29T17:03:33.808Z,7.13
2019-03-29T17:09:38.371Z,6.93
2019-03-29T17:15:42.930Z,7.33
2019-03-29T17:21:47.567Z,6.70
2019-03-29T17:27:52.420Z,5.90
2019-03-29T17:33:58.706Z,6.77
2019-03-29T17:40:03.629Z,7.73
2019-03-29T17:46:16.240Z,7.17
2019-03-29T17:52:14.504Z,7.40
2019-03-29T17:58:19.147Z,7.40
2019-03-29T18:04:23.710Z,6.90
2019-03-29T18:10:29.795Z,7.47
2019-03-29T18:16:34.355Z,8.37
2019-03-29T18:22:39.001Z,9.20
2019-03-29T18:28:43.646Z,7.23
2019-03-29T18:34:48.681Z,7.90
2019-03-29T18:40:53.245Z,8.23
2019-03-29T18:46:57.902Z,8.30
2019-03-29T18:53:02.611Z,8.43
2019-03-29T18:59:07.224Z,7.17
2019-03-29T19:05:24.784Z,6.80
2019-03-29T19:11:29.346Z,7.13
2019-03-29T19:17:33.928Z,7.50
2019-03-29T19:23:38.516Z,7.20
2019-03-29T19:29:43.238Z,9.73
2019-03-29T19:35:47.804Z,9.60
2019-03-29T19:41:52.448Z,9.60
2019-03-29T19:47:57.019Z,9.57
2019-03-29T19:54:07.494Z,9.83
2019-03-29T20:00:14.017Z,9.70
2019-03-29T20:06:18.609Z,10.63
2019-03-29T20:12:25.146Z,10.17
2019-03-29T20:18:29.645Z,10.60
2019-03-29T20:24:34.274Z,11.57
2019-03-29T20:30:38.839Z,12.20
2019-03-29T20:36:43.422Z,12.57
2019-03-29T20:42:48.244Z,11.70
2019-03-29T20:48:52.943Z,11.20
2019-03-29T20:54:57.495Z,11.80
2019-03-29T21:01:02.077Z,10.80
2019-03-29T21:07:06.657Z,11.30
2019-03-29T21:13:11.247Z,11.70
2019-03-29T21:19:15.803Z,11.70
2019-03-29T21:25:20.369Z,11.23
2019-03-29T21:31:24.933Z,12.10
2019-03-29T21:37:29.519Z,11.23
2019-03-29T21:43:34.058Z,12.13
2019-03-29T21:49:38.635Z,11.10
2019-03-29T21:55:43.171Z,11.83
2019-03-29T22:01:47.744Z,13.10
2019-03-29T22:07:52.281Z,11.13
2019-03-29T22:13:56.929Z,11.20
2019-03-29T22:20:01.541Z,11.50
2019-03-29T22:26:06.086Z,11.47
2019-03-29T22:32:10.644Z,11.10
2019-03-29T22:38:15.269Z,9.60
2019-03-29T22:44:19.871Z,10.00
2019-03-29T22:50:24.497Z,10.00
2019-03-29T22:56:29.115Z,9.63
2019-03-29T23:02:33.881Z,11.40
2019-03-29T23:08:38.487Z,11.47
2019-03-29T23:14:43.214Z,10.73
2019-03-29T23:20:47.790Z,11.17
2019-03-29T23:26:52.413Z,10.30
2019-03-29T23:32:57.051Z,11.43
2019-03-29T23:39:01.598Z,11.57
2019-03-29T23:45:09.108Z,11.30
2019-03-29T23:51:13.652Z,10.67
2019-03-29T23:57:18.281Z,12.90
